createdAt,value
2017-07-17T00:00:49.688Z,6.97
2017-07-17T00:03:15.975Z,8.57
2017-07-17T00:05:42.270Z,8.03
2017-07-17T00:08:08.554Z,7.13
2017-07-17T00:10:34.842Z,9.10
2017-07-17T00:13:01.115Z,9.70
2017-07-17T00:15:27.421Z,11.43
2017-07-17T00:17:54.439Z,8.43
2017-07-17T00:20:20.718Z,6.63
2017-07-17T00:22:47.026Z,6.63
2017-07-17T00:25:14.072Z,12.60
2017-07-17T00:27:41.102Z,8.67
2017-07-17T00:30:08.129Z,12.67
2017-07-17T00:32:34.407Z,7.07
2017-07-17T00:35:00.688Z,10.50
2017-07-17T00:37:26.966Z,9.33
2017-07-17T00:39:53.267Z,8.17
2017-07-17T00:42:19.771Z,7.93
2017-07-17T00:44:46.110Z,9.80
2017-07-17T00:47:12.396Z,8.83
2017-07-17T00:49:38.702Z,7.17
2017-07-17T00:52:05.006Z,6.87
2017-07-17T00:54:31.288Z,10.20
2017-07-17T00:56:57.568Z,6.90
2017-07-17T00:59:23.831Z,8.93
2017-07-17T01:01:50.127Z,9.33
2017-07-17T01:04:16.415Z,7.17
2017-07-17T01:06:42.708Z,7.77
2017-07-17T01:09:09.737Z,8.10
2017-07-17T01:11:36.019Z,12.73
2017-07-17T01:14:02.302Z,11.00
2017-07-17T01:16:29.002Z,6.87
2017-07-17T01:18:55.979Z,11.80
2017-07-17T01:21:23.084Z,7.73
2017-07-17T01:23:49.362Z,11.37
2017-07-17T01:26:15.628Z,8.23
2017-07-17T01:28:41.916Z,8.17
2017-07-17T01:31:08.219Z,6.17
2017-07-17T01:33:34.511Z,8.00
2017-07-17T01:36:00.811Z,7.00
2017-07-17T01:38:27.102Z,8.90
2017-07-17T01:40:53.421Z,9.70
2017-07-17T01:43:19.710Z,8.60
2017-07-17T01:45:46.744Z,9.20
2017-07-17T01:48:13.067Z,9.07
2017-07-17T01:50:39.379Z,6.97
2017-07-17T01:53:05.690Z,9.03
2017-07-17T01:55:31.981Z,10.97
2017-07-17T01:57:58.299Z,9.90
2017-07-17T02:00:25.370Z,7.47
2017-07-17T02:02:51.691Z,10.03
2017-07-17T02:05:18.760Z,9.90
2017-07-17T02:07:45.072Z,9.20
2017-07-17T02:10:12.105Z,10.90
2017-07-17T02:12:39.149Z,8.10
2017-07-17T02:15:06.174Z,8.80
2017-07-17T02:17:32.461Z,8.77
2017-07-17T02:19:58.734Z,8.53
2017-07-17T02:22:25.046Z,10.77
2017-07-17T02:24:51.315Z,8.70
2017-07-17T02:27:18.359Z,6.93
2017-07-17T02:29:45.400Z,8.03
2017-07-17T02:32:11.694Z,7.87
2017-07-17T02:34:37.995Z,10.43
2017-07-17T02:37:04.280Z,7.53
2017-07-17T02:39:30.560Z,6.27
2017-07-17T02:41:56.850Z,6.87
2017-07-17T02:44:23.135Z,7.90
2017-07-17T02:46:49.398Z,7.17
2017-07-17T02:49:15.691Z,9.17
2017-07-17T02:51:41.991Z,8.43
2017-07-17T02:54:08.290Z,12.30
2017-07-17T02:56:34.567Z,8.37
2017-07-17T02:59:00.863Z,9.70
2017-07-17T03:01:27.891Z,7.20
2017-07-17T03:03:54.184Z,7.53
2017-07-17T03:06:20.495Z,8.80
2017-07-17T03:08:46.807Z,8.50
2017-07-17T03:11:13.854Z,14.20
2017-07-17T03:13:40.874Z,8.80
2017-07-17T03:16:07.161Z,6.40
2017-07-17T03:18:33.455Z,6.83
2017-07-17T03:20:59.790Z,6.80
2017-07-17T03:23:26.124Z,7.53
2017-07-17T03:25:52.495Z,6.10
2017-07-17T03:28:18.798Z,7.50
2017-07-17T03:30:45.106Z,8.90
2017-07-17T03:33:12.155Z,6.37
2017-07-17T03:35:39.194Z,5.97
2017-07-17T03:38:05.524Z,9.70
2017-07-17T03:40:33.492Z,6.47
2017-07-17T03:43:00.521Z,7.40
2017-07-17T03:45:26.806Z,7.17
2017-07-17T03:47:53.082Z,8.10
2017-07-17T03:50:19.404Z,9.20
2017-07-17T03:52:45.771Z,8.00
2017-07-17T03:55:12.107Z,7.00
2017-07-17T03:57:38.407Z,7.97
2017-07-17T04:00:05.473Z,9.80
2017-07-17T04:02:31.832Z,6.63
2017-07-17T04:04:58.179Z,7.30
2017-07-17T04:07:24.490Z,9.23
2017-07-17T04:09:50.805Z,8.53
2017-07-17T04:12:17.130Z,7.17
2017-07-17T04:14:43.443Z,8.17
2017-07-17T04:17:10.510Z,7.90
2017-07-17T04:19:36.827Z,8.53
2017-07-17T04:22:03.870Z,7.73
2017-07-17T04:24:30.194Z,9.33
2017-07-17T04:26:56.523Z,7.10
2017-07-17T04:29:23.557Z,8.43
2017-07-17T04:31:56.867Z,8.33
2017-07-17T04:34:23.174Z,8.83
2017-07-17T04:36:49.490Z,9.80
2017-07-17T04:39:15.816Z,7.07
2017-07-17T04:41:42.161Z,6.80
2017-07-17T04:44:08.475Z,11.17
2017-07-17T04:46:34.804Z,7.70
2017-07-17T04:49:01.114Z,7.63
2017-07-17T04:51:27.414Z,10.47
2017-07-17T04:53:54.454Z,8.47
2017-07-17T04:56:21.504Z,7.40
2017-07-17T04:58:48.538Z,6.90
2017-07-17T05:01:14.859Z,7.80
2017-07-17T05:03:41.157Z,8.73
2017-07-17T05:06:07.450Z,8.47
2017-07-17T05:08:34.481Z,9.97
2017-07-17T05:11:01.317Z,7.03
2017-07-17T05:13:28.373Z,10.87
2017-07-17T05:15:55.424Z,6.83
2017-07-17T05:18:22.461Z,9.03
2017-07-17T05:20:48.738Z,14.47
2017-07-17T05:23:15.050Z,8.67
2017-07-17T05:25:41.351Z,8.80
2017-07-17T05:28:07.671Z,12.80
2017-07-17T05:30:34.747Z,9.50
2017-07-17T05:33:01.822Z,10.27
2017-07-17T05:35:28.130Z,6.57
2017-07-17T05:37:54.451Z,7.40
2017-07-17T05:40:20.792Z,8.17
2017-07-17T05:42:47.098Z,6.63
2017-07-17T05:45:13.398Z,7.83
2017-07-17T05:47:39.704Z,5.70
2017-07-17T05:50:06.123Z,7.63
2017-07-17T05:52:39.475Z,9.13
2017-07-17T05:55:05.777Z,6.53
2017-07-17T05:57:32.079Z,7.57
2017-07-17T05:59:58.377Z,8.90
2017-07-17T06:02:24.687Z,7.47
2017-07-17T06:04:50.988Z,7.57
2017-07-17T06:07:17.267Z,7.87
2017-07-17T06:09:44.335Z,7.83
2017-07-17T06:12:10.659Z,7.43
2017-07-17T06:14:36.959Z,10.10
2017-07-17T06:17:04.019Z,7.20
2017-07-17T06:19:30.329Z,7.87
2017-07-17T06:21:56.668Z,7.90
2017-07-17T06:24:22.955Z,6.97
2017-07-17T06:26:49.297Z,7.53
2017-07-17T06:29:16.384Z,6.27
2017-07-17T06:31:43.431Z,7.83
2017-07-17T06:34:09.736Z,5.70
2017-07-17T06:36:36.055Z,3.90
2017-07-17T06:39:02.395Z,6.27
2017-07-17T06:41:28.701Z,9.70
2017-07-17T06:43:55.111Z,5.87
2017-07-17T06:46:21.436Z,5.10
2017-07-17T06:48:48.467Z,5.00
2017-07-17T06:51:15.495Z,5.27
2017-07-17T06:53:42.221Z,4.90
2017-07-17T06:56:08.541Z,7.87
2017-07-17T06:58:34.813Z,5.17
2017-07-17T07:01:01.119Z,6.00
2017-07-17T07:03:27.487Z,5.63
2017-07-17T07:05:53.828Z,3.53
2017-07-17T07:08:20.146Z,6.33
2017-07-17T07:10:47.252Z,4.70
2017-07-17T07:13:14.005Z,6.17
2017-07-17T07:15:40.388Z,5.90
2017-07-17T07:18:06.687Z,3.23
2017-07-17T07:20:32.977Z,4.97
2017-07-17T07:22:59.273Z,9.47
2017-07-17T07:25:25.995Z,5.27
2017-07-17T07:27:53.141Z,4.33
2017-07-17T07:30:19.499Z,4.70
2017-07-17T07:32:45.835Z,4.80
2017-07-17T07:35:12.143Z,3.83
2017-07-17T07:37:38.487Z,3.30
2017-07-17T07:40:04.807Z,5.57
2017-07-17T07:42:31.128Z,4.00
2017-07-17T07:44:58.187Z,3.03
2017-07-17T07:47:24.492Z,3.90
2017-07-17T07:49:51.540Z,4.60
2017-07-17T07:52:17.843Z,2.90
2017-07-17T07:54:44.148Z,5.47
2017-07-17T07:57:10.448Z,2.40
2017-07-17T07:59:36.758Z,4.27
2017-07-17T08:02:03.787Z,4.53
2017-07-17T08:04:30.087Z,3.33
2017-07-17T08:06:56.393Z,3.47
2017-07-17T08:09:22.822Z,3.40
2017-07-17T08:11:49.145Z,3.20
2017-07-17T08:14:15.449Z,4.97
2017-07-17T08:16:41.752Z,2.73
2017-07-17T08:19:08.048Z,3.93
2017-07-17T08:21:35.239Z,3.33
2017-07-17T08:24:01.546Z,2.83
2017-07-17T08:26:27.867Z,3.03
2017-07-17T08:28:54.164Z,3.30
2017-07-17T08:31:21.211Z,3.43
2017-07-17T08:33:47.520Z,2.50
2017-07-17T08:36:13.827Z,2.53
2017-07-17T08:38:40.107Z,2.73
2017-07-17T08:41:06.434Z,6.67
2017-07-17T08:43:33.454Z,2.43
2017-07-17T08:46:00.434Z,3.03
2017-07-17T08:48:26.739Z,4.40
2017-07-17T08:50:53.782Z,3.93
2017-07-17T08:53:20.087Z,2.73
2017-07-17T08:55:46.387Z,3.80
2017-07-17T08:58:12.702Z,5.07
2017-07-17T09:00:39.729Z,2.80
2017-07-17T09:03:06.059Z,3.00
2017-07-17T09:05:33.086Z,1.73
2017-07-17T09:07:59.396Z,2.47
2017-07-17T09:10:25.704Z,2.43
2017-07-17T09:12:52.026Z,2.03
2017-07-17T09:15:18.310Z,2.40
2017-07-17T09:17:44.611Z,3.83
2017-07-17T09:20:10.922Z,2.80
2017-07-17T09:22:37.204Z,3.60
2017-07-17T09:25:03.917Z,2.20
2017-07-17T09:27:30.206Z,3.60
2017-07-17T09:29:56.494Z,1.90
2017-07-17T09:32:22.827Z,2.23
2017-07-17T09:34:49.104Z,2.87
2017-07-17T09:37:15.428Z,2.57
2017-07-17T09:39:41.740Z,2.93
2017-07-17T09:42:08.051Z,3.13
2017-07-17T09:44:34.395Z,2.90
2017-07-17T09:47:00.791Z,3.60
2017-07-17T09:49:27.155Z,3.73
2017-07-17T09:51:53.580Z,3.00
2017-07-17T09:54:20.690Z,2.97
2017-07-17T09:56:47.061Z,3.17
2017-07-17T09:59:13.396Z,2.63
2017-07-17T10:01:40.431Z,2.70
2017-07-17T10:04:08.501Z,3.63
2017-07-17T10:06:34.807Z,4.60
2017-07-17T10:09:01.103Z,2.17
2017-07-17T10:11:27.452Z,1.60
2017-07-17T10:13:54.134Z,2.47
2017-07-17T10:16:21.183Z,4.83
2017-07-17T10:18:48.346Z,2.37
2017-07-17T10:21:15.378Z,3.37
2017-07-17T10:23:42.435Z,2.20
2017-07-17T10:26:09.490Z,1.90
2017-07-17T10:28:35.831Z,1.97
2017-07-17T10:31:02.153Z,2.90
2017-07-17T10:33:29.207Z,1.83
2017-07-17T10:35:55.582Z,3.63
2017-07-17T10:38:21.916Z,5.20
2017-07-17T10:40:48.227Z,2.30
2017-07-17T10:43:14.550Z,3.47
2017-07-17T10:45:40.867Z,2.30
2017-07-17T10:48:07.191Z,1.57
2017-07-17T10:50:33.531Z,3.23
2017-07-17T10:52:59.841Z,3.50
2017-07-17T10:55:26.879Z,4.83
2017-07-17T10:57:53.927Z,2.40
2017-07-17T11:00:20.985Z,3.03
2017-07-17T11:02:47.287Z,3.00
2017-07-17T11:05:13.582Z,2.70
2017-07-17T11:07:39.883Z,1.20
2017-07-17T11:10:06.186Z,2.70
2017-07-17T11:12:33.251Z,4.60
2017-07-17T11:14:59.579Z,2.60
2017-07-17T11:17:25.892Z,1.90
2017-07-17T11:19:59.894Z,1.30
2017-07-17T11:22:26.947Z,1.87
2017-07-17T11:24:54.010Z,3.27
2017-07-17T11:27:20.398Z,1.63
2017-07-17T11:29:46.720Z,4.50
2017-07-17T11:32:13.105Z,2.63
2017-07-17T11:34:39.390Z,3.87
2017-07-17T11:37:05.726Z,3.10
2017-07-17T11:39:32.039Z,3.77
2017-07-17T11:41:58.379Z,2.57
2017-07-17T11:44:24.683Z,1.57
2017-07-17T11:57:00.785Z,1.97
2017-07-17T11:59:27.078Z,3.40
2017-07-17T12:01:53.383Z,1.73
2017-07-17T12:04:19.690Z,1.93
2017-07-17T12:06:46.025Z,2.93
2017-07-17T12:09:12.279Z,1.83
2017-07-17T12:11:38.607Z,2.10
2017-07-17T12:14:04.892Z,3.23
2017-07-17T12:16:31.170Z,2.03
2017-07-17T12:18:57.500Z,2.60
2017-07-17T12:21:23.825Z,3.67
2017-07-17T12:23:50.140Z,1.60
2017-07-17T12:26:16.449Z,2.00
2017-07-17T12:28:42.746Z,1.63
2017-07-17T12:31:09.835Z,1.27
2017-07-17T12:33:36.115Z,2.80
2017-07-17T12:36:02.435Z,3.83
2017-07-17T12:38:29.510Z,3.30
2017-07-17T12:40:55.827Z,1.77
2017-07-17T12:43:22.103Z,2.07
2017-07-17T12:45:48.384Z,4.50
2017-07-17T12:48:14.693Z,2.13
2017-07-17T12:50:41.004Z,3.67
2017-07-17T12:53:07.314Z,1.90
2017-07-17T12:55:33.596Z,2.33
2017-07-17T12:57:59.915Z,2.27
2017-07-17T13:00:26.289Z,2.97
2017-07-17T13:02:52.756Z,3.23
2017-07-17T13:05:19.150Z,4.33
2017-07-17T13:07:45.545Z,4.40
2017-07-17T13:10:12.674Z,1.73
2017-07-17T13:12:39.039Z,4.57
2017-07-17T13:15:05.411Z,2.23
2017-07-17T13:17:31.772Z,3.90
2017-07-17T13:19:58.131Z,2.83
2017-07-17T13:22:31.454Z,2.47
2017-07-17T13:24:57.764Z,1.83
2017-07-17T13:27:24.800Z,2.73
2017-07-17T13:29:51.111Z,2.80
2017-07-17T13:32:17.410Z,2.87
2017-07-17T13:34:43.721Z,2.23
2017-07-17T13:37:10.104Z,3.87
2017-07-17T13:39:36.414Z,7.93
2017-07-17T13:42:02.717Z,2.93
2017-07-17T13:44:29.027Z,4.50
2017-07-17T13:46:56.078Z,2.47
2017-07-17T13:49:22.398Z,5.00
2017-07-17T13:51:49.432Z,2.53
2017-07-17T13:54:15.753Z,3.43
2017-07-17T13:56:42.033Z,3.30
2017-07-17T13:59:08.347Z,3.10
2017-07-17T14:01:34.633Z,2.93
2017-07-17T14:04:00.946Z,2.57
2017-07-17T14:06:27.230Z,4.13
2017-07-17T14:08:53.557Z,3.73
2017-07-17T14:11:19.852Z,3.00
2017-07-17T14:13:46.104Z,3.57
2017-07-17T14:16:12.415Z,3.20
2017-07-17T14:18:38.699Z,3.17
2017-07-17T14:21:04.979Z,3.03
2017-07-17T14:23:31.277Z,3.80
2017-07-17T14:25:57.557Z,2.70
2017-07-17T14:28:23.843Z,2.40
2017-07-17T14:30:50.160Z,3.53
2017-07-17T14:33:16.470Z,2.90
2017-07-17T14:35:42.797Z,2.63
2017-07-17T14:38:09.102Z,4.30
2017-07-17T14:40:36.143Z,5.10
2017-07-17T14:43:03.172Z,4.87
2017-07-17T14:45:29.460Z,2.70
2017-07-17T14:47:55.762Z,3.63
2017-07-17T14:50:22.071Z,2.77
2017-07-17T14:52:48.404Z,2.63
2017-07-17T14:55:14.718Z,2.50
2017-07-17T14:57:41.036Z,3.97
2017-07-17T15:00:07.402Z,2.40
2017-07-17T15:02:34.484Z,4.90
2017-07-17T15:05:00.786Z,3.27
2017-07-17T15:07:27.069Z,3.17
2017-07-17T15:09:53.346Z,2.23
2017-07-17T15:12:20.398Z,3.47
2017-07-17T15:14:47.446Z,2.87
2017-07-17T15:17:21.622Z,2.07
2017-07-17T15:19:47.910Z,2.23
2017-07-17T15:22:14.207Z,1.73
2017-07-17T15:24:41.257Z,3.13
2017-07-17T15:27:07.577Z,2.90
2017-07-17T15:29:33.902Z,3.40
2017-07-17T15:32:00.958Z,2.20
2017-07-17T15:34:27.281Z,3.73
2017-07-17T15:36:53.619Z,2.20
2017-07-17T15:39:19.892Z,2.27
2017-07-17T15:41:46.193Z,2.90
2017-07-17T15:44:13.227Z,2.20
2017-07-17T15:46:39.523Z,2.30
2017-07-17T15:49:05.843Z,1.87
2017-07-17T15:51:32.132Z,2.17
2017-07-17T15:53:58.422Z,2.93
2017-07-17T15:56:24.712Z,2.20
2017-07-17T15:58:51.013Z,2.80
2017-07-17T16:01:17.282Z,3.03
2017-07-17T16:03:43.569Z,2.87
2017-07-17T16:06:10.603Z,1.70
2017-07-17T16:08:37.657Z,3.50
2017-07-17T16:11:04.702Z,2.30
2017-07-17T16:13:30.992Z,2.63
2017-07-17T16:15:57.288Z,2.07
2017-07-17T16:18:24.340Z,2.13
2017-07-17T16:20:50.641Z,2.20
2017-07-17T16:23:16.932Z,2.63
2017-07-17T16:25:43.236Z,4.13
2017-07-17T16:28:09.524Z,1.47
2017-07-17T16:30:35.824Z,3.97
2017-07-17T16:33:02.106Z,2.83
2017-07-17T16:35:29.147Z,2.30
2017-07-17T16:37:55.446Z,2.50
2017-07-17T16:40:21.759Z,2.87
2017-07-17T16:42:55.215Z,1.90
2017-07-17T16:45:22.243Z,3.13
2017-07-17T16:47:48.526Z,3.67
2017-07-17T16:50:14.850Z,5.73
2017-07-17T16:52:41.153Z,3.00
2017-07-17T16:55:07.469Z,2.90
2017-07-17T16:57:34.504Z,4.27
2017-07-17T17:00:00.791Z,4.40
2017-07-17T17:02:27.081Z,2.90
2017-07-17T17:04:54.127Z,2.90
2017-07-17T17:07:21.158Z,2.17
2017-07-17T17:09:47.451Z,2.90
2017-07-17T17:12:13.775Z,1.87
2017-07-17T17:14:40.057Z,2.47
2017-07-17T17:17:07.087Z,5.17
2017-07-17T17:19:33.393Z,2.50
2017-07-17T17:21:59.685Z,2.90
2017-07-17T17:24:25.995Z,3.30
2017-07-17T17:26:53.034Z,2.90
2017-07-17T17:29:19.331Z,2.70
2017-07-17T17:31:45.603Z,3.90
2017-07-17T17:34:12.639Z,2.60
2017-07-17T17:36:38.923Z,2.30
2017-07-17T17:39:05.237Z,3.93
2017-07-17T17:41:31.536Z,4.67
2017-07-17T17:43:57.796Z,2.80
2017-07-17T17:46:24.089Z,2.20
2017-07-17T17:48:51.135Z,2.80
2017-07-17T17:51:17.430Z,3.60
2017-07-17T17:53:50.720Z,2.73
2017-07-17T17:56:17.053Z,3.33
2017-07-17T17:58:43.374Z,3.60
2017-07-17T18:01:09.687Z,4.80
2017-07-17T18:03:35.993Z,2.90
2017-07-17T18:06:02.329Z,3.90
2017-07-17T18:08:29.355Z,3.80
2017-07-17T18:10:56.416Z,2.33
2017-07-17T18:13:23.465Z,2.30
2017-07-17T18:15:50.516Z,2.47
2017-07-17T18:18:17.664Z,3.00
2017-07-17T18:20:43.954Z,4.20
2017-07-17T18:23:10.241Z,4.10
2017-07-17T18:25:36.539Z,3.00
2017-07-17T18:28:03.594Z,3.93
2017-07-17T18:30:30.656Z,3.33
2017-07-17T18:32:57.670Z,3.03
2017-07-17T18:35:23.958Z,2.73
2017-07-17T18:37:50.250Z,3.47
2017-07-17T18:40:17.272Z,3.53
2017-07-17T18:42:43.598Z,3.87
2017-07-17T18:45:09.887Z,2.90
2017-07-17T18:47:36.162Z,2.60
2017-07-17T18:50:02.468Z,2.33
2017-07-17T18:52:28.764Z,4.77
2017-07-17T18:54:55.078Z,2.50
2017-07-17T18:57:21.379Z,2.63
2017-07-17T18:59:48.546Z,2.30
2017-07-17T19:02:14.840Z,3.20
2017-07-17T19:04:41.123Z,4.77
2017-07-17T19:07:07.406Z,5.23
2017-07-17T19:09:33.677Z,2.90
2017-07-17T19:12:00.738Z,3.33
2017-07-17T19:14:27.040Z,2.40
2017-07-17T19:16:53.329Z,4.30
2017-07-17T19:19:19.609Z,4.27
2017-07-17T19:21:45.930Z,3.87
2017-07-17T19:24:12.212Z,2.00
2017-07-17T19:26:38.522Z,3.03
2017-07-17T19:29:04.810Z,2.90
2017-07-17T19:31:31.836Z,3.40
2017-07-17T19:33:58.139Z,3.57
2017-07-17T19:36:24.399Z,3.70
2017-07-17T19:38:50.682Z,4.57
2017-07-17T19:41:16.959Z,18.13
2017-07-17T19:43:43.281Z,3.83
2017-07-17T19:46:09.542Z,3.87
2017-07-17T19:48:36.566Z,6.57
2017-07-17T19:51:03.592Z,4.00
2017-07-17T19:53:29.885Z,7.70
2017-07-17T19:55:56.167Z,4.03
2017-07-17T19:58:22.462Z,3.03
2017-07-17T20:00:48.762Z,3.00
2017-07-17T20:03:15.075Z,5.80
2017-07-17T20:05:42.109Z,6.97
2017-07-17T20:08:08.410Z,4.97
2017-07-17T20:10:34.690Z,4.60
2017-07-17T20:13:00.963Z,3.27
2017-07-17T20:15:27.259Z,4.33
2017-07-17T20:17:53.571Z,6.90
2017-07-17T20:20:19.944Z,4.23
2017-07-17T20:22:46.269Z,5.57
2017-07-17T20:25:12.637Z,3.83
2017-07-17T20:27:38.937Z,5.43
2017-07-17T20:30:05.258Z,3.50
2017-07-17T20:32:31.922Z,3.97
2017-07-17T20:34:58.268Z,6.37
2017-07-17T20:37:24.601Z,2.80
2017-07-17T20:39:51.629Z,1.97
2017-07-17T20:42:17.916Z,4.13
2017-07-17T20:44:44.178Z,2.87
2017-07-17T20:47:10.458Z,2.50
2017-07-17T20:49:36.810Z,5.40
2017-07-17T20:52:03.152Z,3.77
2017-07-17T20:54:29.667Z,4.30
2017-07-17T20:56:58.399Z,2.77
2017-07-17T20:59:33.813Z,4.03
2017-07-17T21:02:08.449Z,2.87
2017-07-17T21:04:35.752Z,3.30
2017-07-17T21:07:02.418Z,3.40
2017-07-17T21:09:28.895Z,2.53
2017-07-17T21:11:55.166Z,3.17
2017-07-17T21:14:22.186Z,3.03
2017-07-17T21:16:48.474Z,2.80
2017-07-17T21:19:14.765Z,3.30
2017-07-17T21:21:41.785Z,5.70
2017-07-17T21:24:08.987Z,3.77
2017-07-17T21:26:35.267Z,3.77
2017-07-17T21:29:01.561Z,5.87
2017-07-17T21:31:27.892Z,4.17
2017-07-17T21:33:54.655Z,5.53
2017-07-17T21:36:21.785Z,7.33
2017-07-17T21:38:55.332Z,4.67
2017-07-17T21:41:21.608Z,3.03
2017-07-17T21:43:47.926Z,4.47
2017-07-17T21:46:14.252Z,2.87
2017-07-17T21:48:40.735Z,2.60
2017-07-17T21:51:07.823Z,4.10
2017-07-17T21:53:34.148Z,4.40
2017-07-17T21:56:00.458Z,4.50
2017-07-17T21:58:27.506Z,3.23
2017-07-17T22:00:54.587Z,4.23
2017-07-17T22:03:20.887Z,2.77
2017-07-17T22:05:47.935Z,5.57
2017-07-17T22:08:14.235Z,3.07
2017-07-17T22:10:40.547Z,7.20
2017-07-17T22:13:07.651Z,4.57
2017-07-17T22:15:34.686Z,3.50
2017-07-17T22:18:01.294Z,5.70
2017-07-17T22:20:27.634Z,5.27
2017-07-17T22:22:53.925Z,4.77
2017-07-17T22:25:20.253Z,3.47
2017-07-17T22:27:46.549Z,5.23
2017-07-17T22:30:13.579Z,4.70
2017-07-17T22:32:39.863Z,3.30
2017-07-17T22:35:06.153Z,5.73
2017-07-17T22:37:33.446Z,5.03
2017-07-17T22:39:59.734Z,6.67
2017-07-17T22:42:26.008Z,7.37
2017-07-17T22:44:52.265Z,3.53
2017-07-17T22:47:18.575Z,3.50
2017-07-17T22:49:44.850Z,4.07
2017-07-17T22:52:11.895Z,5.10
2017-07-17T22:54:38.913Z,4.60
2017-07-17T22:57:05.207Z,6.80
2017-07-17T22:59:31.502Z,6.30
2017-07-17T23:01:57.823Z,4.80
2017-07-17T23:04:24.852Z,3.23
2017-07-17T23:06:51.133Z,4.73
2017-07-17T23:09:17.404Z,4.33
2017-07-17T23:11:43.694Z,4.80
2017-07-17T23:14:09.975Z,4.27
2017-07-17T23:16:36.246Z,3.77
2017-07-17T23:19:02.551Z,4.23
2017-07-17T23:21:28.834Z,4.70
2017-07-17T23:23:56.038Z,11.63
2017-07-17T23:26:23.068Z,5.70
2017-07-17T23:28:49.346Z,4.27
2017-07-17T23:31:15.616Z,8.43
2017-07-17T23:33:41.902Z,5.57
2017-07-17T23:36:08.175Z,6.93
2017-07-17T23:38:34.454Z,8.50
2017-07-17T23:41:00.737Z,4.57
2017-07-17T23:43:27.018Z,10.40
2017-07-17T23:45:53.297Z,5.67
2017-07-17T23:48:19.579Z,5.57
2017-07-17T23:50:45.858Z,4.63
2017-07-17T23:53:12.136Z,4.93
2017-07-17T23:55:38.438Z,6.20
2017-07-17T23:58:05.444Z,4.73
